sensor_id;sensor_type;location;lat;lon;timestamp;temperature;humidity
7814;DHT22;3952;48.364;16.022;2022-09-12T00:02:03;14.20;99.90
7814;DHT22;3952;48.364;16.022;2022-09-12T00:04:30;14.20;99.90
7814;DHT22;3952;48.364;16.022;2022-09-12T00:06:57;14.20;99.90
7814;DHT22;3952;48.364;16.022;2022-09-12T00:09:24;14.20;99.90
7814;DHT22;3952;48.364;16.022;2022-09-12T00:11:52;14.20;99.90
7814;DHT22;3952;48.364;16.022;2022-09-12T00:14:19;14.20;99.90
7814;DHT22;3952;48.364;16.022;2022-09-12T00:16:47;14.20;99.90
7814;DHT22;3952;48.364;16.022;2022-09-12T00:19:15;14.10;99.90
7814;DHT22;3952;48.364;16.022;2022-09-12T00:21:43;14.10;99.90
7814;DHT22;3952;48.364;16.022;2022-09-12T00:24:10;14.10;99.90
7814;DHT22;3952;48.364;16.022;2022-09-12T00:26:38;14.00;99.90
7814;DHT22;3952;48.364;16.022;2022-09-12T00:29:05;13.90;99.90
7814;DHT22;3952;48.364;16.022;2022-09-12T00:31:32;13.90;99.90
7814;DHT22;3952;48.364;16.022;2022-09-12T00:34:01;13.90;99.90
7814;DHT22;3952;48.364;16.022;2022-09-12T00:36:29;13.90;99.90
7814;DHT22;3952;48.364;16.022;2022-09-12T00:38:56;13.90;99.90
7814;DHT22;3952;48.364;16.022;2022-09-12T00:41:26;13.90;99.90
7814;DHT22;3952;48.364;16.022;2022-09-12T00:43:55;13.90;99.90
7814;DHT22;3952;48.364;16.022;2022-09-12T00:46:28;13.90;99.90
7814;DHT22;3952;48.364;16.022;2022-09-12T00:48:59;14.00;99.90
7814;DHT22;3952;48.364;16.022;2022-09-12T00:51:30;14.00;99.90
7814;DHT22;3952;48.364;16.022;2022-09-12T00:54:00;14.00;99.90
7814;DHT22;3952;48.364;16.022;2022-09-12T00:56:28;14.00;99.90
7814;DHT22;3952;48.364;16.022;2022-09-12T00:59:00;14.00;99.90
7814;DHT22;3952;48.364;16.022;2022-09-12T01:01:28;13.90;99.90
7814;DHT22;3952;48.364;16.022;2022-09-12T01:03:55;13.90;99.90
7814;DHT22;3952;48.364;16.022;2022-09-12T01:06:26;13.90;99.90
7814;DHT22;3952;48.364;16.022;2022-09-12T01:08:56;13.80;99.90
7814;DHT22;3952;48.364;16.022;2022-09-12T01:11:24;13.80;99.90
7814;DHT22;3952;48.364;16.022;2022-09-12T01:13:52;13.70;99.90
7814;DHT22;3952;48.364;16.022;2022-09-12T01:16:20;13.60;99.90
7814;DHT22;3952;48.364;16.022;2022-09-12T01:18:56;13.60;99.90
7814;DHT22;3952;48.364;16.022;2022-09-12T01:21:35;13.50;99.90
7814;DHT22;3952;48.364;16.022;2022-09-12T01:24:39;13.50;99.90
7814;DHT22;3952;48.364;16.022;2022-09-12T01:27:36;13.50;99.90
7814;DHT22;3952;48.364;16.022;2022-09-12T01:33:31;13.50;99.90
7814;DHT22;3952;48.364;16.022;2022-09-12T01:38:57;13.40;99.90
7814;DHT22;3952;48.364;16.022;2022-09-12T01:41:28;13.40;99.90
7814;DHT22;3952;48.364;16.022;2022-09-12T01:44:01;13.40;99.90
7814;DHT22;3952;48.364;16.022;2022-09-12T01:46:37;13.40;99.90
7814;DHT22;3952;48.364;16.022;2022-09-12T01:49:16;13.30;99.90
7814;DHT22;3952;48.364;16.022;2022-09-12T01:51:49;13.20;99.90
7814;DHT22;3952;48.364;16.022;2022-09-12T01:54:20;13.10;99.90
7814;DHT22;3952;48.364;16.022;2022-09-12T01:56:53;13.00;99.90
7814;DHT22;3952;48.364;16.022;2022-09-12T01:59:24;13.00;99.90
7814;DHT22;3952;48.364;16.022;2022-09-12T02:01:57;13.00;99.90
7814;DHT22;3952;48.364;16.022;2022-09-12T02:04:29;13.00;99.90
7814;DHT22;3952;48.364;16.022;2022-09-12T02:07:05;13.00;99.90
7814;DHT22;3952;48.364;16.022;2022-09-12T02:09:36;13.00;99.90
7814;DHT22;3952;48.364;16.022;2022-09-12T02:12:07;13.00;99.90
7814;DHT22;3952;48.364;16.022;2022-09-12T02:14:39;13.00;99.90
7814;DHT22;3952;48.364;16.022;2022-09-12T02:17:09;12.90;99.90
7814;DHT22;3952;48.364;16.022;2022-09-12T02:19:44;12.90;99.90
7814;DHT22;3952;48.364;16.022;2022-09-12T02:22:16;12.90;99.90
7814;DHT22;3952;48.364;16.022;2022-09-12T02:24:47;12.80;99.90
7814;DHT22;3952;48.364;16.022;2022-09-12T02:27:19;12.80;99.90
7814;DHT22;3952;48.364;16.022;2022-09-12T02:29:47;12.80;99.90
7814;DHT22;3952;48.364;16.022;2022-09-12T02:32:23;12.70;99.90
7814;DHT22;3952;48.364;16.022;2022-09-12T02:34:59;12.70;99.90
7814;DHT22;3952;48.364;16.022;2022-09-12T02:37:38;12.70;99.90
7814;DHT22;3952;48.364;16.022;2022-09-12T02:40:07;12.70;99.90
7814;DHT22;3952;48.364;16.022;2022-09-12T02:42:35;12.70;99.90
7814;DHT22;3952;48.364;16.022;2022-09-12T02:45:03;12.60;99.90
7814;DHT22;3952;48.364;16.022;2022-09-12T02:47:35;12.60;99.90
7814;DHT22;3952;48.364;16.022;2022-09-12T02:50:06;12.60;99.90
7814;DHT22;3952;48.364;16.022;2022-09-12T02:52:34;12.60;99.90
7814;DHT22;3952;48.364;16.022;2022-09-12T02:55:04;12.60;99.90
7814;DHT22;3952;48.364;16.022;2022-09-12T02:57:32;12.60;99.90
7814;DHT22;3952;48.364;16.022;2022-09-12T03:00:00;12.50;99.90
7814;DHT22;3952;48.364;16.022;2022-09-12T03:02:35;12.50;99.90
7814;DHT22;3952;48.364;16.022;2022-09-12T03:05:18;12.50;99.90
7814;DHT22;3952;48.364;16.022;2022-09-12T03:10:54;12.40;99.90
7814;DHT22;3952;48.364;16.022;2022-09-12T03:13:31;12.40;99.90
7814;DHT22;3952;48.364;16.022;2022-09-12T03:16:06;12.40;99.90
7814;DHT22;3952;48.364;16.022;2022-09-12T03:18:44;12.40;99.90
7814;DHT22;3952;48.364;16.022;2022-09-12T03:21:22;12.40;99.90
7814;DHT22;3952;48.364;16.022;2022-09-12T03:24:01;12.40;99.90
7814;DHT22;3952;48.364;16.022;2022-09-12T03:26:35;12.50;99.90
7814;DHT22;3952;48.364;16.022;2022-09-12T03:29:05;12.50;99.90
7814;DHT22;3952;48.364;16.022;2022-09-12T03:31:33;12.60;99.90
7814;DHT22;3952;48.364;16.022;2022-09-12T03:34:00;12.60;99.90
7814;DHT22;3952;48.364;16.022;2022-09-12T03:36:29;12.60;99.90
7814;DHT22;3952;48.364;16.022;2022-09-12T03:38:57;12.70;99.90
7814;DHT22;3952;48.364;16.022;2022-09-12T03:41:24;12.70;99.90
7814;DHT22;3952;48.364;16.022;2022-09-12T03:43:51;12.70;99.90
7814;DHT22;3952;48.364;16.022;2022-09-12T03:46:18;12.80;99.90
7814;DHT22;3952;48.364;16.022;2022-09-12T03:48:45;12.80;99.90
7814;DHT22;3952;48.364;16.022;2022-09-12T03:51:12;12.90;99.90
7814;DHT22;3952;48.364;16.022;2022-09-12T03:53:41;12.90;99.90
7814;DHT22;3952;48.364;16.022;2022-09-12T03:56:10;12.90;99.90
7814;DHT22;3952;48.364;16.022;2022-09-12T03:58:37;12.90;99.90
7814;DHT22;3952;48.364;16.022;2022-09-12T04:01:09;12.90;99.90
7814;DHT22;3952;48.364;16.022;2022-09-12T04:03:38;12.90;99.90
7814;DHT22;3952;48.364;16.022;2022-09-12T04:06:06;12.90;99.90
7814;DHT22;3952;48.364;16.022;2022-09-12T04:08:34;12.90;99.90
7814;DHT22;3952;48.364;16.022;2022-09-12T04:11:04;12.90;99.90
7814;DHT22;3952;48.364;16.022;2022-09-12T04:13:33;12.80;99.90
7814;DHT22;3952;48.364;16.022;2022-09-12T04:16:00;12.80;99.90
7814;DHT22;3952;48.364;16.022;2022-09-12T04:18:28;12.90;99.90
7814;DHT22;3952;48.364;16.022;2022-09-12T04:20:55;12.80;99.90
7814;DHT22;3952;48.364;16.022;2022-09-12T04:23:23;12.80;99.90
7814;DHT22;3952;48.364;16.022;2022-09-12T04:25:53;12.90;99.90
7814;DHT22;3952;48.364;16.022;2022-09-12T04:28:23;12.90;99.90
7814;DHT22;3952;48.364;16.022;2022-09-12T04:30:51;12.90;99.90
7814;DHT22;3952;48.364;16.022;2022-09-12T04:33:18;12.90;99.90
7814;DHT22;3952;48.364;16.022;2022-09-12T04:35:46;12.90;99.90
7814;DHT22;3952;48.364;16.022;2022-09-12T04:38:13;12.90;99.90
7814;DHT22;3952;48.364;16.022;2022-09-12T04:40:41;13.00;99.90
7814;DHT22;3952;48.364;16.022;2022-09-12T04:43:08;13.00;99.90
7814;DHT22;3952;48.364;16.022;2022-09-12T04:45:36;13.00;99.90
7814;DHT22;3952;48.364;16.022;2022-09-12T04:48:03;13.00;99.90
7814;DHT22;3952;48.364;16.022;2022-09-12T04:50:31;13.00;99.90
7814;DHT22;3952;48.364;16.022;2022-09-12T04:52:58;13.00;99.90
7814;DHT22;3952;48.364;16.022;2022-09-12T04:55:25;13.00;99.90
7814;DHT22;3952;48.364;16.022;2022-09-12T04:57:53;13.00;99.90
7814;DHT22;3952;48.364;16.022;2022-09-12T05:00:20;13.10;99.90
7814;DHT22;3952;48.364;16.022;2022-09-12T05:02:49;13.20;99.90
7814;DHT22;3952;48.364;16.022;2022-09-12T05:05:16;13.20;99.90
7814;DHT22;3952;48.364;16.022;2022-09-12T05:07:43;13.20;99.90
7814;DHT22;3952;48.364;16.022;2022-09-12T05:10:11;13.30;99.90
7814;DHT22;3952;48.364;16.022;2022-09-12T05:12:38;13.30;99.90
7814;DHT22;3952;48.364;16.022;2022-09-12T05:15:06;13.30;99.90
7814;DHT22;3952;48.364;16.022;2022-09-12T05:17:34;13.40;99.90
7814;DHT22;3952;48.364;16.022;2022-09-12T05:20:03;13.40;99.90
7814;DHT22;3952;48.364;16.022;2022-09-12T05:22:30;13.50;99.90
7814;DHT22;3952;48.364;16.022;2022-09-12T05:24:57;13.50;99.90
7814;DHT22;3952;48.364;16.022;2022-09-12T05:27:24;13.50;99.90
7814;DHT22;3952;48.364;16.022;2022-09-12T05:29:51;13.50;99.90
7814;DHT22;3952;48.364;16.022;2022-09-12T05:32:19;13.60;99.90
7814;DHT22;3952;48.364;16.022;2022-09-12T05:34:46;13.60;99.90
7814;DHT22;3952;48.364;16.022;2022-09-12T05:37:14;13.60;99.90
7814;DHT22;3952;48.364;16.022;2022-09-12T05:39:42;13.70;99.90
7814;DHT22;3952;48.364;16.022;2022-09-12T05:42:09;13.60;99.90
7814;DHT22;3952;48.364;16.022;2022-09-12T05:44:37;13.70;99.90
7814;DHT22;3952;48.364;16.022;2022-09-12T05:47:04;13.70;99.90
7814;DHT22;3952;48.364;16.022;2022-09-12T05:49:31;13.70;99.90
7814;DHT22;3952;48.364;16.022;2022-09-12T05:51:58;13.80;99.90
7814;DHT22;3952;48.364;16.022;2022-09-12T05:54:27;13.80;99.90
7814;DHT22;3952;48.364;16.022;2022-09-12T05:56:54;13.90;99.90
7814;DHT22;3952;48.364;16.022;2022-09-12T05:59:21;13.90;99.90
7814;DHT22;3952;48.364;16.022;2022-09-12T06:01:49;14.00;99.90
7814;DHT22;3952;48.364;16.022;2022-09-12T06:04:17;14.00;99.90
7814;DHT22;3952;48.364;16.022;2022-09-12T06:06:44;14.10;99.90
7814;DHT22;3952;48.364;16.022;2022-09-12T06:09:14;14.20;99.90
7814;DHT22;3952;48.364;16.022;2022-09-12T06:11:44;14.20;99.90
7814;DHT22;3952;48.364;16.022;2022-09-12T06:14:13;14.30;99.90
7814;DHT22;3952;48.364;16.022;2022-09-12T06:16:40;14.40;99.90
7814;DHT22;3952;48.364;16.022;2022-09-12T06:19:13;14.50;99.90
7814;DHT22;3952;48.364;16.022;2022-09-12T06:21:40;14.60;99.90
7814;DHT22;3952;48.364;16.022;2022-09-12T06:24:08;14.70;99.90
7814;DHT22;3952;48.364;16.022;2022-09-12T06:26:36;14.70;99.90
7814;DHT22;3952;48.364;16.022;2022-09-12T06:29:05;14.80;99.90
7814;DHT22;3952;48.364;16.022;2022-09-12T06:31:34;14.90;99.90
7814;DHT22;3952;48.364;16.022;2022-09-12T06:34:04;15.00;99.90
7814;DHT22;3952;48.364;16.022;2022-09-12T06:36:33;15.10;99.90
7814;DHT22;3952;48.364;16.022;2022-09-12T06:39:03;15.20;99.90
7814;DHT22;3952;48.364;16.022;2022-09-12T06:41:33;15.30;99.90
7814;DHT22;3952;48.364;16.022;2022-09-12T06:44:00;15.40;99.90
7814;DHT22;3952;48.364;16.022;2022-09-12T06:46:30;15.50;99.90
7814;DHT22;3952;48.364;16.022;2022-09-12T06:48:58;15.60;99.90
7814;DHT22;3952;48.364;16.022;2022-09-12T06:51:26;15.60;99.90
7814;DHT22;3952;48.364;16.022;2022-09-12T06:53:54;15.70;99.90
7814;DHT22;3952;48.364;16.022;2022-09-12T06:56:23;15.80;99.90
7814;DHT22;3952;48.364;16.022;2022-09-12T06:58:51;15.80;99.90
7814;DHT22;3952;48.364;16.022;2022-09-12T07:01:21;15.90;99.90
7814;DHT22;3952;48.364;16.022;2022-09-12T07:03:52;16.00;99.90
7814;DHT22;3952;48.364;16.022;2022-09-12T07:06:22;16.00;99.90
7814;DHT22;3952;48.364;16.022;2022-09-12T07:08:50;16.20;99.90
7814;DHT22;3952;48.364;16.022;2022-09-12T07:11:19;16.20;99.90
7814;DHT22;3952;48.364;16.022;2022-09-12T07:13:52;16.40;99.90
7814;DHT22;3952;48.364;16.022;2022-09-12T07:16:19;16.50;99.90
7814;DHT22;3952;48.364;16.022;2022-09-12T07:18:51;16.60;99.90
7814;DHT22;3952;48.364;16.022;2022-09-12T07:21:19;16.80;99.90
7814;DHT22;3952;48.364;16.022;2022-09-12T07:23:46;16.90;99.90
7814;DHT22;3952;48.364;16.022;2022-09-12T07:26:15;17.10;99.90
7814;DHT22;3952;48.364;16.022;2022-09-12T07:28:43;17.20;99.90
7814;DHT22;3952;48.364;16.022;2022-09-12T07:31:12;17.30;99.90
7814;DHT22;3952;48.364;16.022;2022-09-12T07:33:40;17.50;99.90
7814;DHT22;3952;48.364;16.022;2022-09-12T07:36:11;17.70;99.90
7814;DHT22;3952;48.364;16.022;2022-09-12T07:38:40;17.90;99.90
7814;DHT22;3952;48.364;16.022;2022-09-12T07:41:11;18.10;99.90
7814;DHT22;3952;48.364;16.022;2022-09-12T07:43:39;18.30;99.90
7814;DHT22;3952;48.364;16.022;2022-09-12T07:46:07;18.50;99.90
7814;DHT22;3952;48.364;16.022;2022-09-12T07:48:34;18.70;99.90
7814;DHT22;3952;48.364;16.022;2022-09-12T07:51:04;18.90;99.90
7814;DHT22;3952;48.364;16.022;2022-09-12T07:53:35;19.00;99.90
7814;DHT22;3952;48.364;16.022;2022-09-12T07:56:03;19.10;99.90
7814;DHT22;3952;48.364;16.022;2022-09-12T07:58:31;19.20;99.90
7814;DHT22;3952;48.364;16.022;2022-09-12T08:01:03;19.20;99.90
7814;DHT22;3952;48.364;16.022;2022-09-12T08:03:30;19.10;99.90
7814;DHT22;3952;48.364;16.022;2022-09-12T08:06:03;19.10;99.90
7814;DHT22;3952;48.364;16.022;2022-09-12T08:08:30;19.00;99.90
7814;DHT22;3952;48.364;16.022;2022-09-12T08:11:00;18.90;99.90
7814;DHT22;3952;48.364;16.022;2022-09-12T08:13:28;18.90;99.90
7814;DHT22;3952;48.364;16.022;2022-09-12T08:15:59;18.90;99.90
7814;DHT22;3952;48.364;16.022;2022-09-12T08:18:28;18.80;99.90
7814;DHT22;3952;48.364;16.022;2022-09-12T08:20:56;18.90;99.90
7814;DHT22;3952;48.364;16.022;2022-09-12T08:23:24;19.00;99.90
7814;DHT22;3952;48.364;16.022;2022-09-12T08:25:54;19.10;99.90
7814;DHT22;3952;48.364;16.022;2022-09-12T08:28:24;19.20;99.90
7814;DHT22;3952;48.364;16.022;2022-09-12T08:30:51;19.30;99.90
7814;DHT22;3952;48.364;16.022;2022-09-12T08:33:19;19.50;99.90
7814;DHT22;3952;48.364;16.022;2022-09-12T08:35:47;19.60;99.90
7814;DHT22;3952;48.364;16.022;2022-09-12T08:38:14;19.90;99.90
7814;DHT22;3952;48.364;16.022;2022-09-12T08:40:47;20.10;99.90
7814;DHT22;3952;48.364;16.022;2022-09-12T08:43:31;20.30;99.90
7814;DHT22;3952;48.364;16.022;2022-09-12T08:46:05;20.40;99.90
7814;DHT22;3952;48.364;16.022;2022-09-12T08:48:34;20.60;99.90
7814;DHT22;3952;48.364;16.022;2022-09-12T08:51:02;20.80;99.90
7814;DHT22;3952;48.364;16.022;2022-09-12T08:53:31;20.90;99.90
7814;DHT22;3952;48.364;16.022;2022-09-12T08:56:04;20.90;99.90
7814;DHT22;3952;48.364;16.022;2022-09-12T08:58:38;20.90;99.90
7814;DHT22;3952;48.364;16.022;2022-09-12T09:01:08;21.00;99.90
7814;DHT22;3952;48.364;16.022;2022-09-12T09:03:49;21.10;99.90
7814;DHT22;3952;48.364;16.022;2022-09-12T09:06:33;21.00;99.90
7814;DHT22;3952;48.364;16.022;2022-09-12T09:09:06;20.90;99.90
7814;DHT22;3952;48.364;16.022;2022-09-12T09:11:48;20.80;99.90
7814;DHT22;3952;48.364;16.022;2022-09-12T09:14:41;20.60;99.90
7814;DHT22;3952;48.364;16.022;2022-09-12T09:17:19;20.60;99.90
7814;DHT22;3952;48.364;16.022;2022-09-12T09:19:54;20.40;99.90
7814;DHT22;3952;48.364;16.022;2022-09-12T09:22:34;20.30;99.90
7814;DHT22;3952;48.364;16.022;2022-09-12T09:25:06;20.20;99.90
7814;DHT22;3952;48.364;16.022;2022-09-12T09:27:40;20.10;99.90
7814;DHT22;3952;48.364;16.022;2022-09-12T09:30:14;20.10;99.90
7814;DHT22;3952;48.364;16.022;2022-09-12T09:32:43;20.00;99.90
7814;DHT22;3952;48.364;16.022;2022-09-12T09:35:16;20.00;99.90
7814;DHT22;3952;48.364;16.022;2022-09-12T09:37:59;19.90;99.90
7814;DHT22;3952;48.364;16.022;2022-09-12T09:40:33;20.00;99.90
7814;DHT22;3952;48.364;16.022;2022-09-12T09:43:07;19.90;99.90
7814;DHT22;3952;48.364;16.022;2022-09-12T09:45:40;19.90;99.90
7814;DHT22;3952;48.364;16.022;2022-09-12T09:48:16;19.90;99.90
7814;DHT22;3952;48.364;16.022;2022-09-12T09:50:45;19.90;99.90
7814;DHT22;3952;48.364;16.022;2022-09-12T09:53:25;19.90;99.90
7814;DHT22;3952;48.364;16.022;2022-09-12T09:55:56;20.00;99.90
7814;DHT22;3952;48.364;16.022;2022-09-12T09:58:33;20.10;99.90
7814;DHT22;3952;48.364;16.022;2022-09-12T10:01:04;20.10;99.90
7814;DHT22;3952;48.364;16.022;2022-09-12T10:03:33;20.20;99.90
7814;DHT22;3952;48.364;16.022;2022-09-12T10:06:07;20.40;99.90
7814;DHT22;3952;48.364;16.022;2022-09-12T10:08:49;20.60;99.90
7814;DHT22;3952;48.364;16.022;2022-09-12T10:11:18;20.90;99.90
7814;DHT22;3952;48.364;16.022;2022-09-12T10:13:53;21.20;99.90
7814;DHT22;3952;48.364;16.022;2022-09-12T10:16:25;21.40;99.90
7814;DHT22;3952;48.364;16.022;2022-09-12T10:18:54;21.60;99.90
7814;DHT22;3952;48.364;16.022;2022-09-12T10:21:30;21.70;99.90
7814;DHT22;3952;48.364;16.022;2022-09-12T10:24:01;21.90;99.90
7814;DHT22;3952;48.364;16.022;2022-09-12T10:26:38;22.00;99.90
7814;DHT22;3952;48.364;16.022;2022-09-12T10:29:13;22.10;99.90
7814;DHT22;3952;48.364;16.022;2022-09-12T10:31:46;22.30;99.90
7814;DHT22;3952;48.364;16.022;2022-09-12T10:34:26;22.40;99.90
7814;DHT22;3952;48.364;16.022;2022-09-12T10:37:02;22.50;99.90
7814;DHT22;3952;48.364;16.022;2022-09-12T10:39:29;22.50;99.90
7814;DHT22;3952;48.364;16.022;2022-09-12T10:41:58;22.30;99.90
7814;DHT22;3952;48.364;16.022;2022-09-12T10:44:27;22.10;99.90
7814;DHT22;3952;48.364;16.022;2022-09-12T10:46:58;22.20;99.90
7814;DHT22;3952;48.364;16.022;2022-09-12T10:49:28;22.30;99.90
7814;DHT22;3952;48.364;16.022;2022-09-12T10:52:14;22.30;99.90
7814;DHT22;3952;48.364;16.022;2022-09-12T10:54:43;22.20;99.90
7814;DHT22;3952;48.364;16.022;2022-09-12T11:00:09;22.50;99.90
7814;DHT22;3952;48.364;16.022;2022-09-12T11:03:00;22.70;99.90
7814;DHT22;3952;48.364;16.022;2022-09-12T11:05:42;22.90;99.90
7814;DHT22;3952;48.364;16.022;2022-09-12T11:08:19;23.00;99.90
7814;DHT22;3952;48.364;16.022;2022-09-12T11:10:56;23.00;99.90
7814;DHT22;3952;48.364;16.022;2022-09-12T11:13:36;23.10;99.90
7814;DHT22;3952;48.364;16.022;2022-09-12T11:16:16;23.10;99.90
7814;DHT22;3952;48.364;16.022;2022-09-12T11:19:23;23.20;99.90
7814;DHT22;3952;48.364;16.022;2022-09-12T11:22:17;23.20;99.90
7814;DHT22;3952;48.364;16.022;2022-09-12T11:25:01;23.30;99.90
7814;DHT22;3952;48.364;16.022;2022-09-12T11:27:41;23.30;99.90
7814;DHT22;3952;48.364;16.022;2022-09-12T11:30:14;23.40;99.90
7814;DHT22;3952;48.364;16.022;2022-09-12T11:32:59;23.40;99.90
7814;DHT22;3952;48.364;16.022;2022-09-12T11:35:32;23.40;99.90
7814;DHT22;3952;48.364;16.022;2022-09-12T11:38:22;23.40;99.90
7814;DHT22;3952;48.364;16.022;2022-09-12T11:40:53;23.40;99.90
7814;DHT22;3952;48.364;16.022;2022-09-12T11:43:27;23.40;99.90
7814;DHT22;3952;48.364;16.022;2022-09-12T11:46:00;23.50;99.90
7814;DHT22;3952;48.364;16.022;2022-09-12T11:48:36;23.60;99.90
7814;DHT22;3952;48.364;16.022;2022-09-12T11:51:13;23.40;99.90
7814;DHT22;3952;48.364;16.022;2022-09-12T11:53:43;23.20;99.90
7814;DHT22;3952;48.364;16.022;2022-09-12T11:56:16;23.10;99.90
7814;DHT22;3952;48.364;16.022;2022-09-12T11:58:48;23.00;99.90
7814;DHT22;3952;48.364;16.022;2022-09-12T12:01:22;22.90;99.90
7814;DHT22;3952;48.364;16.022;2022-09-12T12:03:50;22.80;99.90
7814;DHT22;3952;48.364;16.022;2022-09-12T12:06:25;22.70;99.90
7814;DHT22;3952;48.364;16.022;2022-09-12T12:08:53;22.60;99.90
7814;DHT22;3952;48.364;16.022;2022-09-12T12:11:32;22.50;99.90
7814;DHT22;3952;48.364;16.022;2022-09-12T12:14:02;22.50;99.90
7814;DHT22;3952;48.364;16.022;2022-09-12T12:16:32;22.40;99.90
7814;DHT22;3952;48.364;16.022;2022-09-12T12:19:02;22.40;99.90
7814;DHT22;3952;48.364;16.022;2022-09-12T12:21:39;22.40;99.90
7814;DHT22;3952;48.364;16.022;2022-09-12T12:24:19;22.30;99.90
7814;DHT22;3952;48.364;16.022;2022-09-12T12:26:56;22.20;99.90
7814;DHT22;3952;48.364;16.022;2022-09-12T12:29:41;22.20;99.90
7814;DHT22;3952;48.364;16.022;2022-09-12T12:32:21;22.20;99.90
7814;DHT22;3952;48.364;16.022;2022-09-12T12:34:48;22.10;99.90
7814;DHT22;3952;48.364;16.022;2022-09-12T12:37:47;22.00;99.90
7814;DHT22;3952;48.364;16.022;2022-09-12T12:40:25;22.00;99.90
7814;DHT22;3952;48.364;16.022;2022-09-12T12:43:02;22.00;99.90
7814;DHT22;3952;48.364;16.022;2022-09-12T12:46:02;22.00;99.90
7814;DHT22;3952;48.364;16.022;2022-09-12T12:51:46;21.90;99.90
7814;DHT22;3952;48.364;16.022;2022-09-12T12:57:26;22.00;99.90
7814;DHT22;3952;48.364;16.022;2022-09-12T12:59:58;21.90;99.90
7814;DHT22;3952;48.364;16.022;2022-09-12T13:02:30;21.90;99.90
7814;DHT22;3952;48.364;16.022;2022-09-12T13:05:00;21.90;99.90
7814;DHT22;3952;48.364;16.022;2022-09-12T13:07:32;21.90;99.90
7814;DHT22;3952;48.364;16.022;2022-09-12T13:10:02;22.00;99.90
7814;DHT22;3952;48.364;16.022;2022-09-12T13:12:34;22.10;99.90
7814;DHT22;3952;48.364;16.022;2022-09-12T13:18:12;22.30;99.90
7814;DHT22;3952;48.364;16.022;2022-09-12T13:20:46;22.20;99.90
7814;DHT22;3952;48.364;16.022;2022-09-12T13:23:24;22.20;99.90
7814;DHT22;3952;48.364;16.022;2022-09-12T13:25:53;22.20;99.90
7814;DHT22;3952;48.364;16.022;2022-09-12T13:28:24;22.10;99.90
7814;DHT22;3952;48.364;16.022;2022-09-12T13:30:58;22.10;99.90
7814;DHT22;3952;48.364;16.022;2022-09-12T13:33:34;22.10;99.90
7814;DHT22;3952;48.364;16.022;2022-09-12T13:39:16;22.00;99.90
7814;DHT22;3952;48.364;16.022;2022-09-12T13:44:44;21.80;99.90
7814;DHT22;3952;48.364;16.022;2022-09-12T13:47:15;21.80;99.90
7814;DHT22;3952;48.364;16.022;2022-09-12T13:49:45;21.90;99.90
7814;DHT22;3952;48.364;16.022;2022-09-12T13:52:17;21.90;99.90
7814;DHT22;3952;48.364;16.022;2022-09-12T13:54:48;21.90;99.90
7814;DHT22;3952;48.364;16.022;2022-09-12T13:57:30;21.90;99.90
7814;DHT22;3952;48.364;16.022;2022-09-12T14:00:03;21.90;99.90
7814;DHT22;3952;48.364;16.022;2022-09-12T14:02:34;21.80;99.90
7814;DHT22;3952;48.364;16.022;2022-09-12T14:05:11;21.80;99.90
7814;DHT22;3952;48.364;16.022;2022-09-12T14:07:51;21.80;99.90
7814;DHT22;3952;48.364;16.022;2022-09-12T14:10:25;21.80;99.90
7814;DHT22;3952;48.364;16.022;2022-09-12T14:12:54;21.80;99.90
7814;DHT22;3952;48.364;16.022;2022-09-12T14:15:26;21.70;99.90
7814;DHT22;3952;48.364;16.022;2022-09-12T14:17:55;21.60;99.90
7814;DHT22;3952;48.364;16.022;2022-09-12T14:20:27;21.60;99.90
7814;DHT22;3952;48.364;16.022;2022-09-12T14:22:59;21.60;99.90
7814;DHT22;3952;48.364;16.022;2022-09-12T14:25:31;21.60;99.90
7814;DHT22;3952;48.364;16.022;2022-09-12T14:28:02;21.60;99.90
7814;DHT22;3952;48.364;16.022;2022-09-12T14:30:33;21.60;99.90
7814;DHT22;3952;48.364;16.022;2022-09-12T14:33:16;21.60;99.90
7814;DHT22;3952;48.364;16.022;2022-09-12T14:35:45;21.70;99.90
7814;DHT22;3952;48.364;16.022;2022-09-12T14:38:21;21.70;99.90
7814;DHT22;3952;48.364;16.022;2022-09-12T14:40:52;21.80;99.90
7814;DHT22;3952;48.364;16.022;2022-09-12T14:43:27;21.80;99.90
7814;DHT22;3952;48.364;16.022;2022-09-12T14:45:59;21.80;99.90
7814;DHT22;3952;48.364;16.022;2022-09-12T14:48:28;21.80;99.90
7814;DHT22;3952;48.364;16.022;2022-09-12T14:50:57;21.80;99.90
7814;DHT22;3952;48.364;16.022;2022-09-12T14:53:31;21.60;99.90
7814;DHT22;3952;48.364;16.022;2022-09-12T14:56:06;21.90;99.90
7814;DHT22;3952;48.364;16.022;2022-09-12T14:58:35;22.00;99.90
7814;DHT22;3952;48.364;16.022;2022-09-12T15:01:22;22.00;99.90
7814;DHT22;3952;48.364;16.022;2022-09-12T15:03:52;22.30;99.90
7814;DHT22;3952;48.364;16.022;2022-09-12T15:06:23;22.10;99.90
7814;DHT22;3952;48.364;16.022;2022-09-12T15:08:53;22.10;99.90
7814;DHT22;3952;48.364;16.022;2022-09-12T15:11:21;22.10;99.90
7814;DHT22;3952;48.364;16.022;2022-09-12T15:13:48;22.00;99.90
7814;DHT22;3952;48.364;16.022;2022-09-12T15:16:17;22.00;99.90
7814;DHT22;3952;48.364;16.022;2022-09-12T15:18:44;21.90;99.90
7814;DHT22;3952;48.364;16.022;2022-09-12T15:21:15;22.00;99.90
7814;DHT22;3952;48.364;16.022;2022-09-12T15:23:45;21.90;99.90
7814;DHT22;3952;48.364;16.022;2022-09-12T15:26:15;21.90;99.90
7814;DHT22;3952;48.364;16.022;2022-09-12T15:28:43;21.90;99.90
7814;DHT22;3952;48.364;16.022;2022-09-12T15:31:14;21.90;99.90
7814;DHT22;3952;48.364;16.022;2022-09-12T15:33:45;21.90;99.90
7814;DHT22;3952;48.364;16.022;2022-09-12T15:36:15;21.90;99.90
7814;DHT22;3952;48.364;16.022;2022-09-12T15:38:43;21.90;99.90
7814;DHT22;3952;48.364;16.022;2022-09-12T15:41:13;21.80;99.90
7814;DHT22;3952;48.364;16.022;2022-09-12T15:43:41;21.70;99.90
7814;DHT22;3952;48.364;16.022;2022-09-12T15:46:10;21.70;99.90
7814;DHT22;3952;48.364;16.022;2022-09-12T15:48:37;21.70;99.90
7814;DHT22;3952;48.364;16.022;2022-09-12T15:51:10;21.80;99.90
7814;DHT22;3952;48.364;16.022;2022-09-12T15:53:37;21.70;99.90
7814;DHT22;3952;48.364;16.022;2022-09-12T15:56:05;21.70;99.90
7814;DHT22;3952;48.364;16.022;2022-09-12T15:58:32;21.70;99.90
7814;DHT22;3952;48.364;16.022;2022-09-12T16:00:59;21.70;99.90
7814;DHT22;3952;48.364;16.022;2022-09-12T16:03:28;21.60;99.90
7814;DHT22;3952;48.364;16.022;2022-09-12T16:05:57;21.60;99.90
7814;DHT22;3952;48.364;16.022;2022-09-12T16:08:28;21.50;99.90
7814;DHT22;3952;48.364;16.022;2022-09-12T16:10:58;21.50;99.90
7814;DHT22;3952;48.364;16.022;2022-09-12T16:13:26;21.40;99.90
7814;DHT22;3952;48.364;16.022;2022-09-12T16:15:56;21.40;99.90
7814;DHT22;3952;48.364;16.022;2022-09-12T16:18:23;21.30;99.90
7814;DHT22;3952;48.364;16.022;2022-09-12T16:20:51;21.30;99.90
7814;DHT22;3952;48.364;16.022;2022-09-12T16:23:18;21.20;99.90
7814;DHT22;3952;48.364;16.022;2022-09-12T16:25:55;21.10;99.90
7814;DHT22;3952;48.364;16.022;2022-09-12T16:28:22;21.10;99.90
7814;DHT22;3952;48.364;16.022;2022-09-12T16:30:54;21.00;99.90
7814;DHT22;3952;48.364;16.022;2022-09-12T16:33:21;20.90;99.90
7814;DHT22;3952;48.364;16.022;2022-09-12T16:35:48;20.90;99.90
7814;DHT22;3952;48.364;16.022;2022-09-12T16:38:20;20.80;99.90
7814;DHT22;3952;48.364;16.022;2022-09-12T16:40:49;20.80;99.90